sensor_id;sensor_type;location;lat;lon;timestamp;temperature;humidity
54158;DHT22;40065;49.894;10.358;2023-06-10T00:02:52;19.50;82.30
54158;DHT22;40065;49.894;10.358;2023-06-10T00:07:55;19.60;82.30
54158;DHT22;40065;49.894;10.358;2023-06-10T00:12:56;19.30;84.10
54158;DHT22;40065;49.894;10.358;2023-06-10T00:17:59;19.10;85.10
54158;DHT22;40065;49.894;10.358;2023-06-10T00:23:01;19.30;84.60
54158;DHT22;40065;49.894;10.358;2023-06-10T00:28:03;19.30;84.40
54158;DHT22;40065;49.894;10.358;2023-06-10T00:33:05;19.20;85.40
54158;DHT22;40065;49.894;10.358;2023-06-10T00:38:09;18.80;87.10
54158;DHT22;40065;49.894;10.358;2023-06-10T00:43:11;18.80;87.60
54158;DHT22;40065;49.894;10.358;2023-06-10T00:48:13;18.80;88.00
54158;DHT22;40065;49.894;10.358;2023-06-10T00:53:15;18.90;87.00
54158;DHT22;40065;49.894;10.358;2023-06-10T00:58:17;18.90;87.70
54158;DHT22;40065;49.894;10.358;2023-06-10T01:03:19;18.90;87.20
54158;DHT22;40065;49.894;10.358;2023-06-10T01:08:55;19.00;87.80
54158;DHT22;40065;49.894;10.358;2023-06-10T01:13:59;19.00;88.10
54158;DHT22;40065;49.894;10.358;2023-06-10T01:19:03;18.80;89.20
54158;DHT22;40065;49.894;10.358;2023-06-10T01:24:05;18.70;88.80
54158;DHT22;40065;49.894;10.358;2023-06-10T01:29:16;18.80;88.80
54158;DHT22;40065;49.894;10.358;2023-06-10T01:34:21;18.80;88.50
54158;DHT22;40065;49.894;10.358;2023-06-10T01:39:25;18.80;89.00
54158;DHT22;40065;49.894;10.358;2023-06-10T01:44:27;18.60;89.40
54158;DHT22;40065;49.894;10.358;2023-06-10T01:49:29;18.50;90.10
54158;DHT22;40065;49.894;10.358;2023-06-10T01:54:31;18.50;90.00
54158;DHT22;40065;49.894;10.358;2023-06-10T01:59:33;18.50;90.30
54158;DHT22;40065;49.894;10.358;2023-06-10T02:04:35;18.40;90.40
54158;DHT22;40065;49.894;10.358;2023-06-10T02:09:37;18.40;90.50
54158;DHT22;40065;49.894;10.358;2023-06-10T02:14:39;18.50;90.40
54158;DHT22;40065;49.894;10.358;2023-06-10T02:19:41;18.40;90.60
54158;DHT22;40065;49.894;10.358;2023-06-10T02:24:44;18.40;90.80
54158;DHT22;40065;49.894;10.358;2023-06-10T02:29:46;18.40;90.80
54158;DHT22;40065;49.894;10.358;2023-06-10T02:34:48;18.10;91.20
54158;DHT22;40065;49.894;10.358;2023-06-10T02:39:54;18.00;91.70
54158;DHT22;40065;49.894;10.358;2023-06-10T02:44:56;17.90;92.00
54158;DHT22;40065;49.894;10.358;2023-06-10T02:50:08;17.90;92.00
54158;DHT22;40065;49.894;10.358;2023-06-10T02:55:19;17.90;92.30
54158;DHT22;40065;49.894;10.358;2023-06-10T03:00:26;17.80;92.60
54158;DHT22;40065;49.894;10.358;2023-06-10T03:05:31;17.80;92.60
54158;DHT22;40065;49.894;10.358;2023-06-10T03:10:37;17.90;92.50
54158;DHT22;40065;49.894;10.358;2023-06-10T03:15:39;18.00;92.60
54158;DHT22;40065;49.894;10.358;2023-06-10T03:20:46;18.00;92.50
54158;DHT22;40065;49.894;10.358;2023-06-10T03:25:48;17.90;92.60
54158;DHT22;40065;49.894;10.358;2023-06-10T03:30:53;17.90;92.50
54158;DHT22;40065;49.894;10.358;2023-06-10T03:35:57;17.90;92.60
54158;DHT22;40065;49.894;10.358;2023-06-10T03:41:00;18.00;92.60
54158;DHT22;40065;49.894;10.358;2023-06-10T03:46:02;18.20;92.50
54158;DHT22;40065;49.894;10.358;2023-06-10T03:51:05;18.60;92.00
54158;DHT22;40065;49.894;10.358;2023-06-10T03:56:07;19.40;90.50
54158;DHT22;40065;49.894;10.358;2023-06-10T04:01:09;20.10;88.20
54158;DHT22;40065;49.894;10.358;2023-06-10T04:06:12;20.90;84.80
54158;DHT22;40065;49.894;10.358;2023-06-10T04:11:14;21.20;83.20
54158;DHT22;40065;49.894;10.358;2023-06-10T04:16:17;22.10;81.40
54158;DHT22;40065;49.894;10.358;2023-06-10T04:21:20;22.80;79.10
54158;DHT22;40065;49.894;10.358;2023-06-10T04:26:24;23.90;75.80
54158;DHT22;40065;49.894;10.358;2023-06-10T04:31:27;24.60;73.80
54158;DHT22;40065;49.894;10.358;2023-06-10T04:36:30;25.10;72.90
54158;DHT22;40065;49.894;10.358;2023-06-10T04:41:31;26.30;70.80
54158;DHT22;40065;49.894;10.358;2023-06-10T04:46:33;27.50;69.00
54158;DHT22;40065;49.894;10.358;2023-06-10T04:51:35;28.50;67.10
54158;DHT22;40065;49.894;10.358;2023-06-10T04:56:37;28.90;65.30
54158;DHT22;40065;49.894;10.358;2023-06-10T05:01:40;29.90;64.10
54158;DHT22;40065;49.894;10.358;2023-06-10T05:06:42;30.10;63.00
54158;DHT22;40065;49.894;10.358;2023-06-10T05:11:44;29.70;62.70
54158;DHT22;40065;49.894;10.358;2023-06-10T05:16:47;29.10;62.50
54158;DHT22;40065;49.894;10.358;2023-06-10T05:21:49;28.60;63.00
54158;DHT22;40065;49.894;10.358;2023-06-10T05:26:51;28.20;63.90
54158;DHT22;40065;49.894;10.358;2023-06-10T05:31:53;28.90;63.50
54158;DHT22;40065;49.894;10.358;2023-06-10T05:36:55;29.60;62.50
54158;DHT22;40065;49.894;10.358;2023-06-10T05:41:57;29.40;62.60
54158;DHT22;40065;49.894;10.358;2023-06-10T05:47:01;29.30;63.00
54158;DHT22;40065;49.894;10.358;2023-06-10T05:52:03;29.20;61.40
54158;DHT22;40065;49.894;10.358;2023-06-10T05:57:05;29.00;62.20
54158;DHT22;40065;49.894;10.358;2023-06-10T06:02:07;29.00;61.90
54158;DHT22;40065;49.894;10.358;2023-06-10T06:07:09;29.10;61.70
54158;DHT22;40065;49.894;10.358;2023-06-10T06:12:11;29.10;61.60
54158;DHT22;40065;49.894;10.358;2023-06-10T06:17:13;29.30;61.00
54158;DHT22;40065;49.894;10.358;2023-06-10T06:22:15;29.10;61.20
54158;DHT22;40065;49.894;10.358;2023-06-10T06:27:21;29.00;61.70
54158;DHT22;40065;49.894;10.358;2023-06-10T06:32:23;29.50;61.50
54158;DHT22;40065;49.894;10.358;2023-06-10T06:37:27;29.70;60.90
54158;DHT22;40065;49.894;10.358;2023-06-10T06:42:44;29.80;60.60
54158;DHT22;40065;49.894;10.358;2023-06-10T06:47:53;29.80;60.80
54158;DHT22;40065;49.894;10.358;2023-06-10T06:52:55;30.40;60.60
54158;DHT22;40065;49.894;10.358;2023-06-10T06:57:57;30.70;59.50
54158;DHT22;40065;49.894;10.358;2023-06-10T07:03:00;31.10;59.10
54158;DHT22;40065;49.894;10.358;2023-06-10T07:08:02;30.60;58.90
54158;DHT22;40065;49.894;10.358;2023-06-10T07:13:04;30.60;58.90
54158;DHT22;40065;49.894;10.358;2023-06-10T07:18:05;30.40;58.90
54158;DHT22;40065;49.894;10.358;2023-06-10T07:23:07;30.60;59.10
54158;DHT22;40065;49.894;10.358;2023-06-10T07:28:09;30.80;60.00
54158;DHT22;40065;49.894;10.358;2023-06-10T07:33:11;31.70;57.80
54158;DHT22;40065;49.894;10.358;2023-06-10T07:38:13;31.50;57.80
54158;DHT22;40065;49.894;10.358;2023-06-10T07:43:15;31.60;57.70
54158;DHT22;40065;49.894;10.358;2023-06-10T07:48:17;31.60;57.50
54158;DHT22;40065;49.894;10.358;2023-06-10T07:53:19;32.00;57.60
54158;DHT22;40065;49.894;10.358;2023-06-10T07:58:21;32.40;56.40
54158;DHT22;40065;49.894;10.358;2023-06-10T08:03:23;32.30;56.50
54158;DHT22;40065;49.894;10.358;2023-06-10T08:08:25;32.70;56.30
54158;DHT22;40065;49.894;10.358;2023-06-10T08:13:27;32.60;56.40
54158;DHT22;40065;49.894;10.358;2023-06-10T08:18:29;32.80;55.20
54158;DHT22;40065;49.894;10.358;2023-06-10T08:23:31;32.80;55.60
54158;DHT22;40065;49.894;10.358;2023-06-10T08:28:33;32.80;55.80
54158;DHT22;40065;49.894;10.358;2023-06-10T08:33:34;33.30;53.60
54158;DHT22;40065;49.894;10.358;2023-06-10T08:38:37;33.00;55.00
54158;DHT22;40065;49.894;10.358;2023-06-10T08:43:42;33.10;54.30
54158;DHT22;40065;49.894;10.358;2023-06-10T08:48:48;32.80;55.40
54158;DHT22;40065;49.894;10.358;2023-06-10T08:54:05;33.70;54.10
54158;DHT22;40065;49.894;10.358;2023-06-10T08:59:10;33.20;54.60
54158;DHT22;40065;49.894;10.358;2023-06-10T09:04:13;34.00;53.80
54158;DHT22;40065;49.894;10.358;2023-06-10T09:09:15;34.10;53.80
54158;DHT22;40065;49.894;10.358;2023-06-10T09:14:17;33.20;54.00
54158;DHT22;40065;49.894;10.358;2023-06-10T09:19:19;33.40;53.60
54158;DHT22;40065;49.894;10.358;2023-06-10T09:24:23;33.70;53.00
54158;DHT22;40065;49.894;10.358;2023-06-10T09:29:25;33.10;53.60
54158;DHT22;40065;49.894;10.358;2023-06-10T09:34:28;33.90;53.20
54158;DHT22;40065;49.894;10.358;2023-06-10T09:39:30;34.00;52.40
54158;DHT22;40065;49.894;10.358;2023-06-10T09:44:32;34.00;53.20
54158;DHT22;40065;49.894;10.358;2023-06-10T09:49:37;34.20;53.10
54158;DHT22;40065;49.894;10.358;2023-06-10T09:54:39;34.20;52.20
54158;DHT22;40065;49.894;10.358;2023-06-10T09:59:42;34.40;52.30
54158;DHT22;40065;49.894;10.358;2023-06-10T10:04:44;34.70;53.10
54158;DHT22;40065;49.894;10.358;2023-06-10T10:09:46;34.70;51.80
54158;DHT22;40065;49.894;10.358;2023-06-10T10:14:48;34.60;52.40
54158;DHT22;40065;49.894;10.358;2023-06-10T10:19:58;33.90;52.40
54158;DHT22;40065;49.894;10.358;2023-06-10T10:25:08;34.30;51.60
54158;DHT22;40065;49.894;10.358;2023-06-10T10:30:14;34.80;50.90
54158;DHT22;40065;49.894;10.358;2023-06-10T10:35:21;34.90;49.50
54158;DHT22;40065;49.894;10.358;2023-06-10T10:40:25;34.60;50.40
54158;DHT22;40065;49.894;10.358;2023-06-10T10:45:32;35.50;50.20
54158;DHT22;40065;49.894;10.358;2023-06-10T10:50:35;35.90;49.40
54158;DHT22;40065;49.894;10.358;2023-06-10T10:55:37;35.80;49.90
54158;DHT22;40065;49.894;10.358;2023-06-10T11:00:44;35.50;49.90
54158;DHT22;40065;49.894;10.358;2023-06-10T11:05:48;35.50;49.20
54158;DHT22;40065;49.894;10.358;2023-06-10T11:10:51;34.60;50.80
54158;DHT22;40065;49.894;10.358;2023-06-10T11:15:58;35.40;50.00
54158;DHT22;40065;49.894;10.358;2023-06-10T11:21:03;35.70;49.60
54158;DHT22;40065;49.894;10.358;2023-06-10T11:36:42;34.80;48.50
54158;DHT22;40065;49.894;10.358;2023-06-10T11:41:46;35.00;48.90
54158;DHT22;40065;49.894;10.358;2023-06-10T11:46:49;35.80;48.20
54158;DHT22;40065;49.894;10.358;2023-06-10T11:51:51;35.00;49.30
54158;DHT22;40065;49.894;10.358;2023-06-10T11:56:58;36.30;48.20
54158;DHT22;40065;49.894;10.358;2023-06-10T12:02:01;35.60;48.50
54158;DHT22;40065;49.894;10.358;2023-06-10T12:07:03;35.40;48.80
54158;DHT22;40065;49.894;10.358;2023-06-10T12:12:06;36.30;48.30
54158;DHT22;40065;49.894;10.358;2023-06-10T12:17:08;36.10;48.20
54158;DHT22;40065;49.894;10.358;2023-06-10T12:22:10;36.50;47.70
54158;DHT22;40065;49.894;10.358;2023-06-10T12:27:12;36.30;48.70
54158;DHT22;40065;49.894;10.358;2023-06-10T12:32:14;36.30;47.60
54158;DHT22;40065;49.894;10.358;2023-06-10T12:37:17;35.40;48.70
54158;DHT22;40065;49.894;10.358;2023-06-10T12:42:24;34.10;51.00
54158;DHT22;40065;49.894;10.358;2023-06-10T12:47:33;34.00;50.60
54158;DHT22;40065;49.894;10.358;2023-06-10T12:52:40;34.90;50.90
54158;DHT22;40065;49.894;10.358;2023-06-10T12:57:49;34.80;50.40
54158;DHT22;40065;49.894;10.358;2023-06-10T13:02:52;33.90;51.20
54158;DHT22;40065;49.894;10.358;2023-06-10T13:07:57;34.20;51.20
54158;DHT22;40065;49.894;10.358;2023-06-10T13:13:00;35.00;49.60
54158;DHT22;40065;49.894;10.358;2023-06-10T13:18:03;35.40;48.50
54158;DHT22;40065;49.894;10.358;2023-06-10T13:23:05;35.10;49.20
54158;DHT22;40065;49.894;10.358;2023-06-10T13:28:07;35.60;49.20
54158;DHT22;40065;49.894;10.358;2023-06-10T13:33:09;35.30;49.10
54158;DHT22;40065;49.894;10.358;2023-06-10T13:38:11;34.60;50.00
54158;DHT22;40065;49.894;10.358;2023-06-10T13:43:15;34.80;49.90
54158;DHT22;40065;49.894;10.358;2023-06-10T13:48:17;34.40;50.10
54158;DHT22;40065;49.894;10.358;2023-06-10T13:53:19;34.90;49.20
54158;DHT22;40065;49.894;10.358;2023-06-10T13:58:21;34.80;50.80
54158;DHT22;40065;49.894;10.358;2023-06-10T14:03:23;33.40;55.90
54158;DHT22;40065;49.894;10.358;2023-06-10T14:08:25;31.80;64.20
54158;DHT22;40065;49.894;10.358;2023-06-10T14:13:27;31.10;65.40
54158;DHT22;40065;49.894;10.358;2023-06-10T14:18:29;30.50;63.70
54158;DHT22;40065;49.894;10.358;2023-06-10T14:23:31;30.60;63.50
54158;DHT22;40065;49.894;10.358;2023-06-10T14:28:33;30.60;64.20
54158;DHT22;40065;49.894;10.358;2023-06-10T14:33:35;31.20;62.30
54158;DHT22;40065;49.894;10.358;2023-06-10T14:38:37;31.70;61.60
54158;DHT22;40065;49.894;10.358;2023-06-10T14:43:39;32.10;62.00
54158;DHT22;40065;49.894;10.358;2023-06-10T14:48:40;32.60;60.70
54158;DHT22;40065;49.894;10.358;2023-06-10T14:53:42;32.90;59.60
54158;DHT22;40065;49.894;10.358;2023-06-10T14:58:44;32.40;61.70
54158;DHT22;40065;49.894;10.358;2023-06-10T15:03:46;31.70;61.20
54158;DHT22;40065;49.894;10.358;2023-06-10T15:08:48;31.20;63.00
54158;DHT22;40065;49.894;10.358;2023-06-10T15:13:50;31.80;62.70
54158;DHT22;40065;49.894;10.358;2023-06-10T15:18:52;31.90;61.90
54158;DHT22;40065;49.894;10.358;2023-06-10T15:23:53;31.80;62.40
54158;DHT22;40065;49.894;10.358;2023-06-10T15:28:55;32.10;62.20
54158;DHT22;40065;49.894;10.358;2023-06-10T15:33:58;32.00;62.50
54158;DHT22;40065;49.894;10.358;2023-06-10T15:39:02;32.10;60.80
54158;DHT22;40065;49.894;10.358;2023-06-10T15:44:05;32.60;60.50
54158;DHT22;40065;49.894;10.358;2023-06-10T15:49:06;32.60;61.00
54158;DHT22;40065;49.894;10.358;2023-06-10T15:54:08;32.70;60.30
54158;DHT22;40065;49.894;10.358;2023-06-10T15:59:10;32.30;61.50
54158;DHT22;40065;49.894;10.358;2023-06-10T16:04:13;32.30;61.90
54158;DHT22;40065;49.894;10.358;2023-06-10T16:09:15;31.80;60.30
54158;DHT22;40065;49.894;10.358;2023-06-10T16:14:18;31.80;59.90
54158;DHT22;40065;49.894;10.358;2023-06-10T16:19:20;31.60;60.20
54158;DHT22;40065;49.894;10.358;2023-06-10T16:24:21;31.60;60.20
54158;DHT22;40065;49.894;10.358;2023-06-10T16:29:25;30.80;60.90
54158;DHT22;40065;49.894;10.358;2023-06-10T16:34:27;30.60;61.30
54158;DHT22;40065;49.894;10.358;2023-06-10T16:39:29;30.10;62.50
54158;DHT22;40065;49.894;10.358;2023-06-10T16:44:31;29.80;63.50
54158;DHT22;40065;49.894;10.358;2023-06-10T16:49:33;30.20;63.70
54158;DHT22;40065;49.894;10.358;2023-06-10T16:54:35;30.00;63.20
54158;DHT22;40065;49.894;10.358;2023-06-10T16:59:37;29.70;63.10
54158;DHT22;40065;49.894;10.358;2023-06-10T17:04:39;29.90;61.10
54158;DHT22;40065;49.894;10.358;2023-06-10T17:09:41;30.00;61.30
54158;DHT22;40065;49.894;10.358;2023-06-10T17:14:43;30.20;60.50
54158;DHT22;40065;49.894;10.358;2023-06-10T17:19:44;30.10;60.70
54158;DHT22;40065;49.894;10.358;2023-06-10T17:24:50;30.00;61.60
54158;DHT22;40065;49.894;10.358;2023-06-10T17:29:52;30.30;60.00
54158;DHT22;40065;49.894;10.358;2023-06-10T17:34:55;29.90;59.70
54158;DHT22;40065;49.894;10.358;2023-06-10T17:39:56;29.70;59.20
54158;DHT22;40065;49.894;10.358;2023-06-10T17:44:58;30.10;58.80
54158;DHT22;40065;49.894;10.358;2023-06-10T17:50:00;29.50;59.80
54158;DHT22;40065;49.894;10.358;2023-06-10T17:55:02;29.40;60.00
54158;DHT22;40065;49.894;10.358;2023-06-10T18:00:05;29.30;60.50
54158;DHT22;40065;49.894;10.358;2023-06-10T18:05:08;29.20;60.50
54158;DHT22;40065;49.894;10.358;2023-06-10T18:10:11;29.00;61.20
54158;DHT22;40065;49.894;10.358;2023-06-10T18:15:13;28.70;62.10
54158;DHT22;40065;49.894;10.358;2023-06-10T18:20:15;28.90;62.10
54158;DHT22;40065;49.894;10.358;2023-06-10T18:25:16;28.70;63.40
54158;DHT22;40065;49.894;10.358;2023-06-10T18:30:18;28.60;63.20
54158;DHT22;40065;49.894;10.358;2023-06-10T18:35:21;28.30;64.20
54158;DHT22;40065;49.894;10.358;2023-06-10T18:40:23;28.00;65.10
54158;DHT22;40065;49.894;10.358;2023-06-10T18:45:25;27.70;65.60
54158;DHT22;40065;49.894;10.358;2023-06-10T18:50:27;27.80;65.60
54158;DHT22;40065;49.894;10.358;2023-06-10T18:55:29;27.60;65.70
54158;DHT22;40065;49.894;10.358;2023-06-10T19:00:34;27.30;66.70
54158;DHT22;40065;49.894;10.358;2023-06-10T19:05:36;27.10;66.90
54158;DHT22;40065;49.894;10.358;2023-06-10T19:10:37;26.90;67.30
54158;DHT22;40065;49.894;10.358;2023-06-10T19:15:39;26.70;68.30
54158;DHT22;40065;49.894;10.358;2023-06-10T19:20:41;26.60;68.60
54158;DHT22;40065;49.894;10.358;2023-06-10T19:25:44;26.60;69.00
54158;DHT22;40065;49.894;10.358;2023-06-10T19:30:46;26.30;69.70
54158;DHT22;40065;49.894;10.358;2023-06-10T19:35:48;26.20;69.40
54158;DHT22;40065;49.894;10.358;2023-06-10T19:40:49;26.20;69.60
54158;DHT22;40065;49.894;10.358;2023-06-10T19:45:51;26.00;70.00
54158;DHT22;40065;49.894;10.358;2023-06-10T19:50:53;25.90;70.20
54158;DHT22;40065;49.894;10.358;2023-06-10T19:55:55;25.90;70.40
54158;DHT22;40065;49.894;10.358;2023-06-10T20:00:57;25.70;71.10
54158;DHT22;40065;49.894;10.358;2023-06-10T20:05:58;25.70;71.30
54158;DHT22;40065;49.894;10.358;2023-06-10T20:11:02;25.60;71.40
54158;DHT22;40065;49.894;10.358;2023-06-10T20:16:04;25.50;72.10
54158;DHT22;40065;49.894;10.358;2023-06-10T20:21:06;25.30;72.30
54158;DHT22;40065;49.894;10.358;2023-06-10T20:26:08;25.00;73.10
54158;DHT22;40065;49.894;10.358;2023-06-10T20:31:11;25.10;73.50
54158;DHT22;40065;49.894;10.358;2023-06-10T20:36:13;25.10;73.90
54158;DHT22;40065;49.894;10.358;2023-06-10T20:41:17;25.00;74.20
54158;DHT22;40065;49.894;10.358;2023-06-10T20:46:19;25.10;73.60
54158;DHT22;40065;49.894;10.358;2023-06-10T20:51:21;25.30;72.70
54158;DHT22;40065;49.894;10.358;2023-06-10T20:56:23;25.40;72.00
54158;DHT22;40065;49.894;10.358;2023-06-10T21:01:25;25.30;71.70
54158;DHT22;40065;49.894;10.358;2023-06-10T21:06:27;25.50;70.60
54158;DHT22;40065;49.894;10.358;2023-06-10T21:11:29;25.50;68.70
54158;DHT22;40065;49.894;10.358;2023-06-10T21:16:31;25.70;68.10
54158;DHT22;40065;49.894;10.358;2023-06-10T21:21:35;25.50;68.30
54158;DHT22;40065;49.894;10.358;2023-06-10T21:26:37;25.40;68.70
54158;DHT22;40065;49.894;10.358;2023-06-10T21:31:40;25.50;68.70
54158;DHT22;40065;49.894;10.358;2023-06-10T21:36:42;25.70;68.30
54158;DHT22;40065;49.894;10.358;2023-06-10T21:41:44;25.10;69.40
54158;DHT22;40065;49.894;10.358;2023-06-10T21:46:46;25.00;70.10
54158;DHT22;40065;49.894;10.358;2023-06-10T21:51:48;24.90;70.30
54158;DHT22;40065;49.894;10.358;2023-06-10T21:56:50;24.70;71.30
54158;DHT22;40065;49.894;10.358;2023-06-10T22:01:51;24.60;71.40
54158;DHT22;40065;49.894;10.358;2023-06-10T22:06:53;24.50;71.90
54158;DHT22;40065;49.894;10.358;2023-06-10T22:11:55;24.40;72.50
54158;DHT22;40065;49.894;10.358;2023-06-10T22:16:57;24.20;73.60
54158;DHT22;40065;49.894;10.358;2023-06-10T22:21:59;24.00;74.10
54158;DHT22;40065;49.894;10.358;2023-06-10T22:27:02;23.70;75.30
54158;DHT22;40065;49.894;10.358;2023-06-10T22:32:04;23.60;75.50
54158;DHT22;40065;49.894;10.358;2023-06-10T22:37:06;23.40;76.40
54158;DHT22;40065;49.894;10.358;2023-06-10T22:42:08;23.40;76.10
54158;DHT22;40065;49.894;10.358;2023-06-10T22:47:11;23.30;76.30
54158;DHT22;40065;49.894;10.358;2023-06-10T22:52:13;23.20;76.80
54158;DHT22;40065;49.894;10.358;2023-06-10T22:57:15;23.00;77.70
54158;DHT22;40065;49.894;10.358;2023-06-10T23:02:17;23.00;77.70
54158;DHT22;40065;49.894;10.358;2023-06-10T23:07:19;23.10;78.20
54158;DHT22;40065;49.894;10.358;2023-06-10T23:12:22;22.70;79.70
54158;DHT22;40065;49.894;10.358;2023-06-10T23:17:24;22.60;79.90
54158;DHT22;40065;49.894;10.358;2023-06-10T23:22:29;22.60;80.10
54158;DHT22;40065;49.894;10.358;2023-06-10T23:27:34;22.50;81.10
54158;DHT22;40065;49.894;10.358;2023-06-10T23:32:36;22.40;81.40
54158;DHT22;40065;49.894;10.358;2023-06-10T23:37:39;22.30;81.60
54158;DHT22;40065;49.894;10.358;2023-06-10T23:42:41;22.10;82.80
54158;DHT22;40065;49.894;10.358;2023-06-10T23:47:42;22.00;83.10
54158;DHT22;40065;49.894;10.358;2023-06-10T23:52:45;21.90;83.80
54158;DHT22;40065;49.894;10.358;2023-06-10T23:57:47;21.80;85.20
